Flight Track Log - Related Links

Times and Time Zones

All times are in EST time to prevent confusion due to time zone crossing. See the AAY846 flight status page for this flight to view local times or setup timezone preferences in your user account.

Time Position Orientation Groundspeed Altitude Reporting Facility
EST Latitude Longitude Course Direction KTS MPH feet Rate Location/Type
09:05AM 27.9000 -82.6833 180° South 175 201 800  Level Tampa TRACON
09:05AM 27.8667 -82.6833 180° South 174 200 1,500 1,846 Climbing Tampa TRACON
09:06AM 27.8167 -82.7000 196° South 220 253 3,600 1,878 Climbing Tampa TRACON
09:07AM 27.8333 -82.7500 291° West 217 250 5,100 1,700 Climbing Tampa TRACON
09:08AM 27.9000 -82.7500 360° North 288 331 7,000 2,165 Climbing Tampa TRACON
09:10AM 28.0225 -82.7539 358° North 303 349 10,800 1,834 Climbing Jacksonville Center
09:11AM 28.1164 -82.7656 354° North 317 365 11,800 1,311 Climbing Jacksonville Center
09:12AM 28.2228 -82.7794 353° North 348 400 13,400 2,033 Climbing Jacksonville Center
09:13AM 28.3336 -82.7983 351° North 376 433 15,900 2,250 Climbing Jacksonville Center
09:14AM 28.4442 -82.8122 354° North 398 458 17,900 1,850 Climbing Jacksonville Center
09:15AM 28.5611 -82.8239 355° North 408 470 19,600 1,488 Climbing Jacksonville Center
09:16AM 28.6717 -82.8689 340° North 414 476 20,900 1,400 Climbing Jacksonville Center
09:17AM 28.7781 -82.9447 328° Northwest 402 463 22,400 1,450 Climbing Jacksonville Center
09:18AM 28.8886 -83.0039 335° Northwest 412 474 23,800 1,600 Climbing Jacksonville Center
09:19AM 29.0033 -83.0589 337° Northwest 426 490 25,600 1,750 Climbing Jacksonville Center
09:20AM 29.1119 -83.1136 336° Northwest 431 496 27,300 1,550 Climbing Jacksonville Center
09:21AM 29.2225 -83.1661 337° Northwest 431 496 28,700 1,250 Climbing Jacksonville Center
09:22AM 29.3308 -83.2189 337° Northwest 425 489 29,800 807 Climbing Jacksonville Center
09:23AM 29.4372 -83.2717 337° Northwest 425 489 30,300 700 Climbing Jacksonville Center
09:24AM 29.5456 -83.3294 335° Northwest 420 483 31,200 850 Climbing Jacksonville Center
09:25AM 29.6558 -83.3800 338° Northwest 420 483 32,000 403 Climbing Jacksonville Center
09:26AM 29.7664 -83.4381 335° Northwest 420 483 32,000  Level Jacksonville Center
09:27AM 29.8747 -83.4914 337° Northwest 425 489 32,000  Level Jacksonville Center
09:28AM 29.9831 -83.5447 337° Northwest 425 489 32,000  Level Jacksonville Center
09:29AM 30.0933 -83.5983 337° Northwest 425 489 32,000  Level Jacksonville Center
09:30AM 30.1911 -83.6472 337° Northwest 419 482 32,000 -50 Level Jacksonville Center
09:31AM 30.2994 -83.7008 337° Northwest 419 482 31,900 -50 Descending Jacksonville Center
09:32AM 30.4056 -83.7572 335° Northwest 419 482 31,900 50 Level Jacksonville Center
09:33AM 30.5181 -83.8114 337° Northwest 419 482 32,000 50 Climbing Jacksonville Center
09:34AM 30.6239 -83.8656 336° Northwest 419 482 32,000  Level Jacksonville Center
09:35AM 30.7300 -83.9197 336° Northwest 419 482 32,000  Level Jacksonville Center
09:36AM 30.8319 -83.9836 332° Northwest 419 482 32,000  Level Jacksonville Center
09:37AM 30.9272 -84.0575 326° Northwest 419 482 32,000  Level Jacksonville Center
09:38AM 31.0289 -84.1386 326° Northwest 414 476 32,000  Level Jacksonville Center
09:39AM 31.1219 -84.2128 326° Northwest 408 470 32,000  Level Jacksonville Center
09:40AM 31.2153 -84.2844 327° Northwest 403 464 32,000  Level Jacksonville Center
09:41AM 31.3061 -84.3589 325° Northwest 398 458 32,000  Level Jacksonville Center
09:43AM 31.5222 -84.5333 325° Northwest 392 451 32,000  Level Atlanta Center
09:44AM 31.6014 -84.5947 327° Northwest 392 451 32,000  Level Atlanta Center
09:45AM 31.6928 -84.6661 326° Northwest 392 451 32,000  Level Atlanta Center
09:46AM 31.7842 -84.7425 325° Northwest 398 458 32,000 150 Level Atlanta Center
09:47AM 31.8736 -84.8092 328° Northwest 393 452 32,300 500 Climbing Atlanta Center
09:48AM 31.9778 -84.8617 337° Northwest 393 452 33,000 350 Climbing Atlanta Center
09:49AM 32.0817 -84.9114 338° Northwest 393 452 33,000  Level Atlanta Center
09:50AM 32.1836 -84.9617 337° Northwest 393 452 33,000  Level Atlanta Center
09:51AM 32.2958 -85.0119 339° North 393 452 33,000  Level Atlanta Center
09:52AM 32.3978 -85.0647 336° Northwest 393 452 33,000  Level Atlanta Center
09:53AM 32.4994 -85.1175 336° Northwest 397 457 33,000  Level Atlanta Center
09:54AM 32.6033 -85.1706 337° Northwest 394 453 33,000  Level Atlanta Center
09:55AM 32.6883 -85.2408 325° Northwest 387 445 33,000  Level Atlanta Center
09:56AM 32.7817 -85.3064 329° Northwest 387 445 33,000  Level Atlanta Center
09:57AM 32.8814 -85.3572 337° Northwest 382 440 33,000  Level Atlanta Center
09:58AM 32.9831 -85.4058 338° Northwest 382 440 33,000  Level Atlanta Center
09:59AM 33.0764 -85.4617 333° Northwest 400 460 33,000  Level Atlanta Center
10:00AM 33.1761 -85.5056 340° North 394 453 33,000  Level Atlanta Center
10:01AM 33.2756 -85.5544 338° Northwest 394 453 33,000  Level Atlanta Center
10:02AM 33.3875 -85.6161 335° Northwest 399 459 33,000  Level Atlanta Center
10:03AM 33.4872 -85.6653 338° Northwest 394 453 33,000  Level Atlanta Center
10:04AM 33.5847 -85.7144 337° Northwest 388 447 33,000  Level Atlanta Center
10:05AM 33.6819 -85.7639 337° Northwest 388 447 33,000 150 Level Atlanta Center
10:06AM 33.7753 -85.8106 337° Northwest 380 437 33,300 500 Climbing Atlanta Center
10:07AM 33.8706 -85.8578 338° Northwest 374 430 34,000 350 Climbing Atlanta Center
10:08AM 33.9681 -85.9072 337° Northwest 374 430 34,000  Level Atlanta Center
10:09AM 34.0653 -85.9572 337° Northwest 374 430 34,000  Level Atlanta Center
10:10AM 34.1647 -86.0069 338° Northwest 374 430 34,000  Level Atlanta Center
10:11AM 34.2639 -86.0597 336° Northwest 374 430 34,000  Level Atlanta Center
10:12AM 34.3633 -86.1072 338° Northwest 379 436 34,000  Level Atlanta Center
10:13AM 34.4606 -86.1600 336° Northwest 379 436 34,000  Level Atlanta Center
10:14AM 34.5597 -86.2131 336° Northwest 379 436 34,000  Level Atlanta Center
10:15AM 34.6569 -86.2636 337° Northwest 379 436 34,000  Level Atlanta Center
10:16AM 34.7542 -86.3167 336° Northwest 374 430 34,000  Level Atlanta Center
10:17AM 34.8656 -86.3750 337° Northwest 385 443 34,000  Level Memphis Center
10:18AM 34.9614 -86.4272 336° Northwest 383 441 34,000  Level Memphis Center
10:19AM 35.0575 -86.4764 337° Northwest 381 438 34,000  Level Memphis Center
10:20AM 35.1669 -86.5350 336° Northwest 381 438 34,000  Level Memphis Center
10:21AM 35.2664 -86.5867 337° Northwest 381 438 34,000  Level Memphis Center
10:22AM 35.3650 -86.6397 336° Northwest 381 438 34,000  Level Memphis Center
10:24AM 35.4633 -86.6925 336° Northwest 381 438 34,000  Level Memphis Center
10:25AM 35.5600 -86.7442 337° Northwest 380 437 34,000  Level Memphis Center
10:26AM 35.6589 -86.7975 336° Northwest 379 436 34,000  Level Memphis Center
10:27AM 35.7564 -86.8500 336° Northwest 379 436 34,000  Level Memphis Center
10:28AM 35.8700 -86.9117 336° Northwest 379 436 34,000  Level Memphis Center
10:29AM 35.9686 -86.9642 337° Northwest 379 436 34,000  Level Memphis Center
10:30AM 36.0672 -87.0175 336° Northwest 379 436 34,000  Level Memphis Center
10:31AM 36.1664 -87.0728 336° Northwest 380 437 34,000  Level Memphis Center
10:32AM 36.2672 -87.1261 337° Northwest 383 441 34,000  Level Memphis Center
10:33AM 36.3672 -87.1800 337° Northwest 383 441 34,000  Level Memphis Center
10:34AM 36.4669 -87.2344 336° Northwest 383 441 34,000  Level Memphis Center
10:35AM 36.5661 -87.2892 336° Northwest 383 441 34,000  Level Memphis Center
10:36AM 36.6661 -87.3442 336° Northwest 384 442 34,000  Level Memphis Center
10:37AM 36.7642 -87.3997 336° Northwest 384 442 34,000  Level Memphis Center
10:38AM 36.8794 -87.4622 337° Northwest 384 442 34,000  Level Memphis Center
10:39AM 36.9772 -87.5167 336° Northwest 382 440 34,000  Level Memphis Center
10:40AM 37.0744 -87.5706 336° Northwest 382 440 34,000  Level Memphis Center
10:41AM 37.1717 -87.6269 335° Northwest 382 440 34,000  Level Memphis Center
10:42AM 37.2706 -87.6819 336° Northwest 382 440 34,000  Level Memphis Center
10:43AM 37.3669 -87.7375 335° Northwest 381 438 34,000  Level Memphis Center
10:44AM 37.4769 -87.7981 336° Northwest 381 438 34,000  Level Memphis Center
10:45AM 37.5736 -87.8528 336° Northwest 381 438 34,000  Level Memphis Center
10:46AM 37.6694 -87.9072 336° Northwest 381 438 34,000  Level Memphis Center
10:47AM 37.7650 -87.9633 335° Northwest 380 437 34,000  Level Memphis Center
10:49AM 37.8939 -88.0350 336° Northwest 380 437 34,000  Level Indianapolis Center
10:50AM 37.9908 -88.0911 335° Northwest 380 437 34,000  Level Indianapolis Center
10:51AM 38.0869 -88.1458 336° Northwest 380 437 34,000  Level Indianapolis Center
10:51AM 38.1442 -88.1794 335° Northwest 378 435 34,000  Level Kansas City Center
10:52AM 38.2408 -88.2347 336° Northwest 378 435 34,000  Level Kansas City Center
10:53AM 38.3372 -88.2906 336° Northwest 378 435 34,000  Level Kansas City Center
10:54AM 38.4519 -88.3586 335° Northwest 378 435 34,000 -48 Level Kansas City Center
10:55AM 38.5486 -88.4150 335° Northwest 378 435 33,900 -576 Descending Kansas City Center
10:57AM 38.6475 -88.4700 337° Northwest 379 436 32,800 -1,008 Descending Kansas City Center
10:58AM 38.7403 -88.5228 336° Northwest 368 423 31,800 -912 Descending Kansas City Center
10:59AM 38.8300 -88.5783 334° Northwest 361 415 30,900 -912 Descending Kansas City Center
11:00AM 38.9217 -88.6308 336° Northwest 360 414 29,900 -1,082 Descending Kansas City Center
11:01AM 39.0144 -88.6842 336° Northwest 360 414 28,700 -1,536 Descending Kansas City Center
11:02AM 39.1206 -88.7481 335° Northwest 353 406 26,700 -1,776 Descending Kansas City Center
11:03AM 39.2081 -88.7989 336° Northwest 344 396 25,000 -1,785 Descending Kansas City Center
11:04AM 39.2936 -88.8517 334° Northwest 342 394 23,100 -1,742 Descending Kansas City Center
11:05AM 39.3803 -88.9017 336° Northwest 341 392 21,400 -1,584 Descending Kansas City Center
11:06AM 39.4586 -88.9472 336° Northwest 341 392 19,800 -1,680 Descending Kansas City Center
11:07AM 39.5567 -89.0075 335° Northwest 329 379 17,900 -1,392 Descending Kansas City Center
11:08AM 39.6347 -89.0533 336° Northwest 315 362 16,900 -1,180 Descending Kansas City Center
11:09AM 39.7122 -89.1000 335° Northwest 308 354 15,500 -1,152 Descending Kansas City Center
11:10AM 39.7911 -89.1486 335° Northwest 309 356 14,500 -1,403 Descending Kansas City Center
11:11AM 39.8661 -89.1958 334° Northwest 304 350 12,600 -1,220 Descending Kansas City Center
11:12AM 39.9408 -89.2458 333° Northwest 303 349 12,000 -339 Descending Kansas City Center
11:13AM 40.0294 -89.3011 334° Northwest 299 344 11,900 -384 Descending Kansas City Center
11:14AM 40.1033 -89.3478 334° Northwest 299 344 11,200 -432 Descending Kansas City Center
11:15AM 40.1767 -89.3911 336° Northwest 296 341 11,000 -92 Descending Kansas City Center
11:16AM 40.2639 -89.4425 336° Northwest 289 333 11,000 -183 Level Chicago Center
11:17AM 40.3353 -89.4719 343° North 276 318 10,600 -1,016 Descending Chicago Center
11:18AM 40.4000 -89.5025 340° North 260 299 8,900 -1,902 Descending Chicago Center
11:19AM 40.4636 -89.5303 342° North 250 288 6,700 -1,707 Descending Chicago Center
11:20AM 40.5211 -89.5472 347° North 232 267 5,400 -1,645 Descending Chicago Center
11:21AM 40.5869 -89.5572 353° North 210 242 3,300 -1,561 Descending Chicago Center
11:22AM 40.6147 -89.6092 305° West 191 220 2,200 -976 Descending Chicago Center
11:23AM 40.6392 -89.6528 306° West 166 191 1,300 -774 Descending Chicago Center
11:24AM 40.6592 -89.6878 307° West 142 163 600 -677 Descending Chicago Center

Login

Don't have an account? Register now (free) for customized features, flight alerts, and more!